createdAt,value
2018-12-02T00:01:54.788Z,99512.00
2018-12-02T00:06:57.753Z,99513.00
2018-12-02T00:12:00.738Z,99497.00
2018-12-02T00:17:03.794Z,99492.00
2018-12-02T00:22:07.031Z,99475.00
2018-12-02T00:27:10.030Z,99471.00
2018-12-02T00:32:12.961Z,99463.00
2018-12-02T00:37:15.926Z,99463.00
2018-12-02T00:42:18.890Z,99464.00
2018-12-02T00:47:21.860Z,99457.00
2018-12-02T00:52:24.832Z,99436.00
2018-12-02T00:57:27.811Z,99429.00
2018-12-02T01:02:30.775Z,99443.00
2018-12-02T01:07:33.651Z,99422.00
2018-12-02T01:12:36.629Z,99430.00
2018-12-02T01:17:39.663Z,99421.00
2018-12-02T01:22:43.130Z,99418.00
2018-12-02T01:27:46.669Z,99408.00
2018-12-02T01:32:51.783Z,99410.00
2018-12-02T01:37:54.891Z,99403.00
2018-12-02T01:42:57.848Z,99401.00
2018-12-02T01:48:00.816Z,99393.00
2018-12-02T01:53:03.794Z,99388.00
2018-12-02T01:58:06.770Z,99385.00
2018-12-02T02:03:09.785Z,99374.00
2018-12-02T02:08:12.757Z,99370.00
2018-12-02T02:13:15.730Z,99349.00
2018-12-02T02:18:18.705Z,99350.00
2018-12-02T02:23:21.677Z,99336.00
2018-12-02T02:28:24.636Z,99332.00
2018-12-02T02:33:27.598Z,99319.00
2018-12-02T02:38:30.514Z,99320.00
2018-12-02T02:43:33.461Z,99296.00
2018-12-02T02:48:36.433Z,99281.00
2018-12-02T02:53:39.413Z,99275.00
2018-12-02T02:58:42.315Z,99269.00
2018-12-02T03:03:45.311Z,99259.00
2018-12-02T03:08:48.265Z,99250.00
2018-12-02T03:13:51.223Z,99245.00
2018-12-02T03:18:54.149Z,99227.00
2018-12-02T03:23:57.063Z,99230.00
2018-12-02T03:29:00.002Z,99206.00
2018-12-02T03:34:03.057Z,99213.00
2018-12-02T03:39:07.430Z,99197.00
2018-12-02T03:44:10.381Z,99204.00
2018-12-02T03:49:13.317Z,99204.00
2018-12-02T03:54:16.270Z,99192.00
2018-12-02T03:59:19.180Z,99194.00
2018-12-02T04:04:22.170Z,99185.00
2018-12-02T04:09:25.059Z,99182.00
2018-12-02T04:14:28.027Z,99182.00
2018-12-02T04:19:31.029Z,99184.00
2018-12-02T04:24:33.997Z,99172.00
2018-12-02T04:29:37.006Z,99169.00
2018-12-02T04:34:39.999Z,99159.00
2018-12-02T04:39:42.968Z,99160.00
2018-12-02T04:44:45.982Z,99157.00
2018-12-02T04:49:48.981Z,99147.00
2018-12-02T04:54:51.939Z,99142.00
2018-12-02T04:59:54.893Z,99139.00
2018-12-02T05:04:58.003Z,99127.00
2018-12-02T05:10:01.056Z,99118.00
2018-12-02T05:15:05.657Z,99111.00
2018-12-02T05:20:12.828Z,99101.00
2018-12-02T05:25:17.787Z,99092.00
2018-12-02T05:30:21.151Z,99093.00
2018-12-02T05:35:24.160Z,99078.00
2018-12-02T05:40:27.129Z,99074.00
2018-12-02T05:45:30.098Z,99067.00
2018-12-02T05:50:33.020Z,99058.00
2018-12-02T05:55:36.853Z,99059.00
2018-12-02T06:00:39.797Z,99055.00
2018-12-02T06:05:42.809Z,99052.00
2018-12-02T06:10:45.772Z,99043.00
2018-12-02T06:15:48.732Z,99043.00
2018-12-02T06:20:51.686Z,99032.00
2018-12-02T06:25:54.642Z,99032.00
2018-12-02T06:30:57.598Z,99021.00
2018-12-02T06:36:00.892Z,99022.00
2018-12-02T06:41:04.033Z,99020.00
2018-12-02T06:46:07.033Z,99017.00
2018-12-02T06:51:10.046Z,99020.00
2018-12-02T06:56:19.398Z,99015.00
2018-12-02T07:01:51.783Z,99019.00
2018-12-02T07:06:54.697Z,99018.00
2018-12-02T07:11:57.711Z,99018.00
2018-12-02T07:17:00.635Z,99004.00
2018-12-02T07:22:26.331Z,99007.00
2018-12-02T07:27:29.346Z,99012.00
2018-12-02T07:32:32.303Z,99008.00
2018-12-02T07:37:35.270Z,99008.00
2018-12-02T07:42:38.278Z,99004.00
2018-12-02T07:47:41.308Z,98997.00
2018-12-02T07:52:44.299Z,98991.00
2018-12-02T07:57:47.669Z,98997.00
2018-12-02T08:02:50.699Z,98989.00
2018-12-02T08:07:54.002Z,98982.00
2018-12-02T08:12:56.975Z,98980.00
2018-12-02T08:17:59.998Z,98974.00
2018-12-02T08:23:03.021Z,98963.00
2018-12-02T08:28:06.083Z,98976.00
2018-12-02T08:33:09.190Z,98967.00
2018-12-02T08:38:12.973Z,98972.00
2018-12-02T08:43:15.937Z,98956.00
2018-12-02T08:48:18.933Z,98960.00
2018-12-02T08:53:21.896Z,98956.00
2018-12-02T08:58:24.857Z,98945.00
2018-12-02T09:03:27.847Z,98936.00
2018-12-02T09:08:30.841Z,98929.00
2018-12-02T09:13:33.801Z,98938.00
2018-12-02T09:18:36.788Z,98953.00
2018-12-02T09:23:39.733Z,98946.00
2018-12-02T09:28:42.786Z,98962.00
2018-12-02T09:33:45.762Z,98961.00
2018-12-02T09:38:48.737Z,98968.00
2018-12-02T09:43:51.980Z,98956.00
2018-12-02T09:48:54.972Z,98962.00
2018-12-02T09:53:57.993Z,98961.00
2018-12-02T09:59:01.056Z,98955.00
2018-12-02T10:04:04.597Z,98957.00
2018-12-02T10:09:10.321Z,98949.00
2018-12-02T10:14:13.325Z,98945.00
2018-12-02T10:19:16.327Z,98933.00
2018-12-02T10:24:19.338Z,98930.00
2018-12-02T10:29:22.335Z,98918.00
2018-12-02T10:34:25.497Z,98916.00
2018-12-02T10:39:28.492Z,98920.00
2018-12-02T10:44:31.432Z,98913.00
2018-12-02T10:49:34.384Z,98916.00
2018-12-02T10:54:37.346Z,98907.00
2018-12-02T10:59:40.405Z,98910.00
2018-12-02T11:04:43.446Z,98902.00
2018-12-02T11:09:46.488Z,98893.00
2018-12-02T11:14:49.483Z,98911.00
2018-12-02T11:19:52.613Z,98919.00
2018-12-02T11:24:55.583Z,98917.00
2018-12-02T11:29:58.638Z,98909.00
2018-12-02T11:35:01.712Z,98909.00
2018-12-02T11:40:11.794Z,98897.00
2018-12-02T11:45:15.578Z,98890.00
2018-12-02T11:50:20.162Z,98893.00
2018-12-02T11:55:23.448Z,98889.00
2018-12-02T12:00:29.135Z,98890.00
2018-12-02T12:05:32.133Z,98889.00
2018-12-02T12:10:35.175Z,98884.00
2018-12-02T12:15:38.792Z,98888.00
2018-12-02T12:20:42.902Z,98885.00
2018-12-02T12:25:45.925Z,98882.00
2018-12-02T12:30:48.995Z,98881.00
2018-12-02T12:35:51.991Z,98887.00
2018-12-02T12:40:55.053Z,98883.00
2018-12-02T12:45:59.211Z,98885.00
2018-12-02T12:51:02.327Z,98875.00
2018-12-02T12:56:05.438Z,98884.00
2018-12-02T13:01:08.474Z,98879.00
2018-12-02T13:06:11.498Z,98881.00
2018-12-02T13:11:14.567Z,98889.00
2018-12-02T13:16:17.599Z,98906.00
2018-12-02T13:21:20.613Z,98899.00
2018-12-02T13:26:23.651Z,98900.00
2018-12-02T13:31:26.777Z,98909.00
2018-12-02T13:36:29.874Z,98914.00
2018-12-02T13:41:32.921Z,98909.00
2018-12-02T13:46:35.910Z,98917.00
2018-12-02T13:51:38.891Z,98916.00
2018-12-02T13:56:41.951Z,98918.00
2018-12-02T14:01:44.986Z,98923.00
2018-12-02T14:06:48.107Z,98925.00
2018-12-02T14:11:51.155Z,98941.00
2018-12-02T14:16:59.296Z,98942.00
2018-12-02T14:22:02.428Z,98946.00
2018-12-02T14:27:06.847Z,98957.00
2018-12-02T14:32:13.059Z,98972.00
2018-12-02T14:37:16.384Z,98972.00
2018-12-02T14:42:19.645Z,98968.00
2018-12-02T14:47:22.648Z,98974.00
2018-12-02T14:52:25.636Z,98987.00
2018-12-02T14:57:28.672Z,98986.00
2018-12-02T15:02:32.553Z,98985.00
2018-12-02T15:07:35.749Z,98985.00
2018-12-02T15:12:38.902Z,98988.00
2018-12-02T15:17:42.660Z,98995.00
2018-12-02T15:22:45.940Z,98999.00
2018-12-02T15:27:48.960Z,98994.00
2018-12-02T15:32:51.937Z,99009.00
2018-12-02T15:37:54.935Z,99012.00
2018-12-02T15:42:58.002Z,99022.00
2018-12-02T15:48:01.046Z,99020.00
2018-12-02T15:53:04.157Z,99022.00
2018-12-02T15:58:10.102Z,99008.00
2018-12-02T16:03:13.179Z,99013.00
2018-12-02T16:08:16.113Z,99026.00
2018-12-02T16:13:19.132Z,99021.00
2018-12-02T16:18:22.062Z,99037.00
2018-12-02T16:23:26.344Z,99034.00
2018-12-02T16:28:29.357Z,99027.00
2018-12-02T16:33:32.393Z,99031.00
2018-12-02T16:38:35.423Z,99041.00
2018-12-02T16:43:38.496Z,99032.00
2018-12-02T16:48:41.572Z,99049.00
2018-12-02T16:53:44.565Z,99057.00
2018-12-02T16:59:00.817Z,99058.00
2018-12-02T17:04:04.217Z,99059.00
2018-12-02T17:09:11.711Z,99057.00
2018-12-02T17:14:14.881Z,99062.00
2018-12-02T17:19:18.034Z,99056.00
2018-12-02T17:24:21.007Z,99061.00
2018-12-02T17:29:24.044Z,99063.00
2018-12-02T17:34:27.142Z,99060.00
2018-12-02T17:39:32.404Z,99069.00
2018-12-02T17:44:35.463Z,99071.00
2018-12-02T17:49:38.486Z,99058.00
2018-12-02T17:54:41.671Z,99053.00
2018-12-02T17:59:44.855Z,99059.00
2018-12-02T18:04:48.026Z,99051.00
2018-12-02T18:09:51.049Z,99051.00
2018-12-02T18:14:54.176Z,99050.00
2018-12-02T18:19:57.135Z,99041.00
2018-12-02T18:25:00.313Z,99026.00
2018-12-02T18:30:20.971Z,99026.00
2018-12-02T18:35:43.358Z,99057.00
2018-12-02T18:41:14.656Z,99056.00
2018-12-02T18:46:18.865Z,99054.00
2018-12-02T18:51:21.900Z,99055.00
2018-12-02T18:56:25.066Z,99041.00
2018-12-02T19:01:28.274Z,99048.00
2018-12-02T19:06:31.385Z,99039.00
2018-12-02T19:11:34.482Z,99039.00
2018-12-02T19:16:42.134Z,99033.00
2018-12-02T19:21:45.273Z,99050.00
2018-12-02T19:26:48.444Z,99050.00
2018-12-02T19:31:51.559Z,99062.00
2018-12-02T19:36:59.281Z,99058.00
2018-12-02T19:42:02.552Z,99063.00
2018-12-02T19:47:05.835Z,99066.00
2018-12-02T19:52:08.921Z,99063.00
2018-12-02T19:57:11.951Z,99062.00
2018-12-02T20:02:15.066Z,99055.00
2018-12-02T20:07:18.105Z,99056.00
2018-12-02T20:12:21.143Z,99084.00
2018-12-02T20:17:24.259Z,99055.00
2018-12-02T20:22:27.296Z,99080.00
2018-12-02T20:27:30.311Z,99073.00
2018-12-02T20:32:33.369Z,99073.00
2018-12-02T20:37:36.482Z,99067.00
2018-12-02T20:42:39.615Z,99060.00
2018-12-02T20:47:42.677Z,99053.00
2018-12-02T20:52:46.512Z,99053.00
2018-12-02T20:57:52.331Z,99040.00
2018-12-02T21:03:08.478Z,99038.00
2018-12-02T21:08:11.420Z,99039.00
2018-12-02T21:13:14.510Z,99038.00
2018-12-02T21:18:17.784Z,99028.00
2018-12-02T21:23:20.731Z,99037.00
2018-12-02T21:28:25.245Z,99016.00
2018-12-02T21:33:28.291Z,99025.00
2018-12-02T21:38:31.257Z,99027.00
2018-12-02T21:43:34.279Z,99008.00
2018-12-02T21:48:37.229Z,99019.00
2018-12-02T21:53:40.368Z,99023.00
2018-12-02T21:58:43.418Z,99016.00
2018-12-02T22:03:46.457Z,99014.00
2018-12-02T22:08:49.620Z,99003.00
2018-12-02T22:13:52.623Z,99008.00
2018-12-02T22:18:55.679Z,99004.00
2018-12-02T22:24:01.313Z,98996.00
2018-12-02T22:29:01.804Z,99006.00
2018-12-02T22:34:05.452Z,99004.00
2018-12-02T22:39:08.513Z,98997.00
2018-12-02T22:44:11.505Z,98994.00
2018-12-02T22:49:14.588Z,98988.00
2018-12-02T22:54:17.572Z,98982.00
2018-12-02T22:59:20.569Z,98979.00
2018-12-02T23:04:23.595Z,98977.00
2018-12-02T23:09:26.573Z,98980.00
2018-12-02T23:14:29.742Z,98970.00
2018-12-02T23:19:32.706Z,98980.00
2018-12-02T23:24:35.693Z,98992.00
2018-12-02T23:29:38.628Z,98994.00
2018-12-02T23:34:41.627Z,99010.00
2018-12-02T23:39:44.731Z,99007.00
2018-12-02T23:44:47.861Z,99033.00
2018-12-02T23:49:50.774Z,99000.00
2018-12-02T23:54:53.757Z,98999.00
2018-12-02T23:59:56.694Z,99012.00
